sensor_id;sensor_type;location;lat;lon;timestamp;pressure;altitude;pressure_sealevel;temperature;humidity
48614;BME280;34408;51.426;5.444;2023-04-09T00:00:19;102488.03;;;11.86;60.88
48614;BME280;34408;51.426;5.444;2023-04-09T00:02:48;102484.31;;;11.87;60.75
48614;BME280;34408;51.426;5.444;2023-04-09T00:05:16;102479.97;;;11.86;60.84
48614;BME280;34408;51.426;5.444;2023-04-09T00:07:44;102481.81;;;11.86;60.76
48614;BME280;34408;51.426;5.444;2023-04-09T00:10:11;102479.97;;;11.86;60.73
48614;BME280;34408;51.426;5.444;2023-04-09T00:12:39;102475.78;;;11.84;60.70
48614;BME280;34408;51.426;5.444;2023-04-09T00:15:08;102478.28;;;11.85;60.85
48614;BME280;34408;51.426;5.444;2023-04-09T00:17:47;102473.94;;;11.84;60.82
48614;BME280;34408;51.426;5.444;2023-04-09T00:20:15;102475.78;;;11.84;60.99
48614;BME280;34408;51.426;5.444;2023-04-09T00:22:43;102471.44;;;11.83;61.13
48614;BME280;34408;51.426;5.444;2023-04-09T00:25:11;102466.03;;;11.83;61.03
48614;BME280;34408;51.426;5.444;2023-04-09T00:27:38;102464.19;;;11.83;60.91
48614;BME280;34408;51.426;5.444;2023-04-09T00:30:07;102472.25;;;11.83;61.06
48614;BME280;34408;51.426;5.444;2023-04-09T00:32:37;102448.28;;;11.73;61.08
48614;BME280;34408;51.426;5.444;2023-04-09T00:35:07;102451.94;;;11.81;60.93
48614;BME280;34408;51.426;5.444;2023-04-09T00:37:34;102454.63;;;11.81;60.96
48614;BME280;34408;51.426;5.444;2023-04-09T00:40:03;102454.63;;;11.81;61.20
48614;BME280;34408;51.426;5.444;2023-04-09T00:42:31;102455.44;;;11.81;61.05
48614;BME280;34408;51.426;5.444;2023-04-09T00:44:59;102457.31;;;11.81;61.12
48614;BME280;34408;51.426;5.444;2023-04-09T00:47:28;102453.78;;;11.80;61.20
48614;BME280;34408;51.426;5.444;2023-04-09T00:49:56;102461.03;;;11.80;61.32
48614;BME280;34408;51.426;5.444;2023-04-09T00:52:26;102461.03;;;11.80;61.10
48614;BME280;34408;51.426;5.444;2023-04-09T00:54:56;102452.31;;;11.78;61.10
48614;BME280;34408;51.426;5.444;2023-04-09T00:57:25;102459.34;;;11.79;61.17
48614;BME280;34408;51.426;5.444;2023-04-09T00:59:54;102459.34;;;11.79;61.41
48614;BME280;34408;51.426;5.444;2023-04-09T01:02:22;102454.16;;;11.77;61.39
48614;BME280;34408;51.426;5.444;2023-04-09T01:04:50;102433.72;;;11.68;61.18
48614;BME280;34408;51.426;5.444;2023-04-09T01:07:22;102455.16;;;11.76;61.48
48614;BME280;34408;51.426;5.444;2023-04-09T01:10:00;102449.78;;;11.76;61.46
48614;BME280;34408;51.426;5.444;2023-04-09T01:12:32;102448.94;;;11.76;61.17
48614;BME280;34408;51.426;5.444;2023-04-09T01:15:05;102445.59;;;11.73;61.28
48614;BME280;34408;51.426;5.444;2023-04-09T01:17:40;102438.34;;;11.74;61.26
48614;BME280;34408;51.426;5.444;2023-04-09T01:20:13;102438.53;;;11.72;61.34
48614;BME280;34408;51.426;5.444;2023-04-09T01:22:52;102437.72;;;11.72;61.26
48614;BME280;34408;51.426;5.444;2023-04-09T01:25:33;102445.78;;;11.72;61.65
48614;BME280;34408;51.426;5.444;2023-04-09T01:28:17;102433.53;;;11.69;61.58
48614;BME280;34408;51.426;5.444;2023-04-09T01:30:48;102435.59;;;11.67;61.65
48614;BME280;34408;51.426;5.444;2023-04-09T01:33:17;102437.06;;;11.70;61.43
48614;BME280;34408;51.426;5.444;2023-04-09T01:35:47;102445.97;;;11.70;61.61
48614;BME280;34408;51.426;5.444;2023-04-09T01:38:17;102440.78;;;11.69;61.53
48614;BME280;34408;51.426;5.444;2023-04-09T01:40:46;102436.22;;;11.69;61.56
48614;BME280;34408;51.426;5.444;2023-04-09T01:43:18;102436.22;;;11.69;61.71
48614;BME280;34408;51.426;5.444;2023-04-09T01:45:46;102437.25;;;11.68;61.71
48614;BME280;34408;51.426;5.444;2023-04-09T01:48:15;102437.25;;;11.68;61.65
48614;BME280;34408;51.426;5.444;2023-04-09T01:50:43;102432.91;;;11.67;61.78
48614;BME280;34408;51.426;5.444;2023-04-09T01:53:11;102435.59;;;11.67;61.68
48614;BME280;34408;51.426;5.444;2023-04-09T01:55:39;102438.28;;;11.67;61.83
48614;BME280;34408;51.426;5.444;2023-04-09T01:58:07;102432.25;;;11.65;61.99
48614;BME280;34408;51.426;5.444;2023-04-09T02:00:38;102435.78;;;11.66;62.03
48614;BME280;34408;51.426;5.444;2023-04-09T02:03:09;102436.81;;;11.65;61.75
48614;BME280;34408;51.426;5.444;2023-04-09T02:05:42;102424.75;;;11.61;61.72
48614;BME280;34408;51.426;5.444;2023-04-09T02:08:12;102430.56;;;11.64;61.79
48614;BME280;34408;51.426;5.444;2023-04-09T02:10:46;102431.41;;;11.65;62.08
48614;BME280;34408;51.426;5.444;2023-04-09T02:13:19;102436.81;;;11.65;62.12
48614;BME280;34408;51.426;5.444;2023-04-09T02:15:49;102430.56;;;11.64;62.05
48614;BME280;34408;51.426;5.444;2023-04-09T02:18:22;102436.81;;;11.65;62.40
48614;BME280;34408;51.426;5.444;2023-04-09T02:20:51;102426.03;;;11.65;62.29
48614;BME280;34408;51.426;5.444;2023-04-09T02:23:19;102416.66;;;11.61;61.95
48614;BME280;34408;51.426;5.444;2023-04-09T02:25:47;102425.19;;;11.64;62.15
48614;BME280;34408;51.426;5.444;2023-04-09T02:28:15;102419.16;;;11.62;61.93
48614;BME280;34408;51.426;5.444;2023-04-09T02:30:43;102413.97;;;11.61;62.35
48614;BME280;34408;51.426;5.444;2023-04-09T02:33:12;102415.63;;;11.62;62.20
48614;BME280;34408;51.426;5.444;2023-04-09T02:35:39;102418.13;;;11.63;62.32
48614;BME280;34408;51.426;5.444;2023-04-09T02:38:07;102425.38;;;11.63;62.22
48614;BME280;34408;51.426;5.444;2023-04-09T02:40:39;102421.84;;;11.62;62.67
48614;BME280;34408;51.426;5.444;2023-04-09T02:43:07;102420.84;;;11.63;62.14
48614;BME280;34408;51.426;5.444;2023-04-09T02:45:35;102420.00;;;11.63;62.43
48614;BME280;34408;51.426;5.444;2023-04-09T02:48:03;102414.16;;;11.59;62.31
48614;BME280;34408;51.426;5.444;2023-04-09T02:50:32;102421.22;;;11.60;62.28
48614;BME280;34408;51.426;5.444;2023-04-09T02:53:00;102419.34;;;11.61;62.36
48614;BME280;34408;51.426;5.444;2023-04-09T02:55:28;102413.31;;;11.59;62.60
48614;BME280;34408;51.426;5.444;2023-04-09T02:57:56;102416.00;;;11.59;62.54
48614;BME280;34408;51.426;5.444;2023-04-09T03:00:24;102415.19;;;11.58;62.33
48614;BME280;34408;51.426;5.444;2023-04-09T03:02:51;102412.50;;;11.58;62.43
48614;BME280;34408;51.426;5.444;2023-04-09T03:05:19;102406.47;;;11.56;62.26
48614;BME280;34408;51.426;5.444;2023-04-09T03:07:48;102394.78;;;11.49;62.33
48614;BME280;34408;51.426;5.444;2023-04-09T03:10:16;102411.84;;;11.56;62.27
48614;BME280;34408;51.426;5.444;2023-04-09T03:12:44;102396.91;;;11.54;62.38
48614;BME280;34408;51.426;5.444;2023-04-09T03:15:13;102406.66;;;11.55;62.39
48614;BME280;34408;51.426;5.444;2023-04-09T03:17:41;102395.88;;;11.55;62.20
48614;BME280;34408;51.426;5.444;2023-04-09T03:20:09;102402.28;;;11.54;62.25
48614;BME280;34408;51.426;5.444;2023-04-09T03:22:37;102399.78;;;11.52;62.32
48614;BME280;34408;51.426;5.444;2023-04-09T03:25:07;102393.75;;;11.50;62.51
48614;BME280;34408;51.426;5.444;2023-04-09T03:27:35;102397.28;;;11.51;62.38
48614;BME280;34408;51.426;5.444;2023-04-09T03:30:03;102386.69;;;11.49;62.39
48614;BME280;34408;51.426;5.444;2023-04-09T03:32:31;102393.94;;;11.49;62.18
48614;BME280;34408;51.426;5.444;2023-04-09T03:34:59;102398.50;;;11.48;62.28
48614;BME280;34408;51.426;5.444;2023-04-09T03:37:27;102394.13;;;11.47;62.19
48614;BME280;34408;51.426;5.444;2023-04-09T03:39:54;102388.94;;;11.46;62.51
48614;BME280;34408;51.426;5.444;2023-04-09T03:42:24;102382.72;;;11.45;62.36
48614;BME280;34408;51.426;5.444;2023-04-09T03:44:52;102391.81;;;11.44;62.49
48614;BME280;34408;51.426;5.444;2023-04-09T03:47:20;102376.69;;;11.43;62.25
48614;BME280;34408;51.426;5.444;2023-04-09T03:49:48;102388.50;;;11.42;62.31
48614;BME280;34408;51.426;5.444;2023-04-09T03:52:15;102392.84;;;11.43;62.40
48614;BME280;34408;51.426;5.444;2023-04-09T03:54:43;102391.38;;;11.40;62.39
48614;BME280;34408;51.426;5.444;2023-04-09T03:57:11;102381.63;;;11.39;62.25
48614;BME280;34408;51.426;5.444;2023-04-09T03:59:40;102388.88;;;11.39;62.43
48614;BME280;34408;51.426;5.444;2023-04-09T04:02:07;102383.66;;;11.37;62.40
48614;BME280;34408;51.426;5.444;2023-04-09T04:04:35;102386.38;;;11.37;62.25
48614;BME280;34408;51.426;5.444;2023-04-09T04:07:03;102391.75;;;11.37;62.20
48614;BME280;34408;51.426;5.444;2023-04-09T04:09:31;102389.06;;;11.37;62.28
48614;BME280;34408;51.426;5.444;2023-04-09T04:11:59;102390.91;;;11.37;62.27
48614;BME280;34408;51.426;5.444;2023-04-09T04:14:27;102391.94;;;11.36;62.21
48614;BME280;34408;51.426;5.444;2023-04-09T04:16:56;102398.34;;;11.35;62.36
48614;BME280;34408;51.426;5.444;2023-04-09T04:19:24;102391.28;;;11.34;62.40
48614;BME280;34408;51.426;5.444;2023-04-09T04:21:52;102392.97;;;11.35;62.39
48614;BME280;34408;51.426;5.444;2023-04-09T04:24:20;102386.75;;;11.34;62.20
48614;BME280;34408;51.426;5.444;2023-04-09T04:26:47;102378.84;;;11.33;62.24
48614;BME280;34408;51.426;5.444;2023-04-09T04:29:15;102381.34;;;11.34;62.33
48614;BME280;34408;51.426;5.444;2023-04-09T04:31:43;102384.25;;;11.33;62.34
48614;BME280;34408;51.426;5.444;2023-04-09T04:34:12;102388.97;;;11.31;62.42
48614;BME280;34408;51.426;5.444;2023-04-09T04:36:40;102388.97;;;11.31;62.26
48614;BME280;34408;51.426;5.444;2023-04-09T04:39:08;102384.63;;;11.30;62.22
48614;BME280;34408;51.426;5.444;2023-04-09T04:41:35;102382.94;;;11.29;62.40
48614;BME280;34408;51.426;5.444;2023-04-09T04:44:03;102383.97;;;11.28;62.16
48614;BME280;34408;51.426;5.444;2023-04-09T04:46:31;102391.84;;;11.29;62.01
48614;BME280;34408;51.426;5.444;2023-04-09T04:48:59;102395.75;;;11.27;62.13
48614;BME280;34408;51.426;5.444;2023-04-09T04:51:29;102390.75;;;11.24;62.18
48614;BME280;34408;51.426;5.444;2023-04-09T04:53:57;102379.06;;;11.17;62.01
48614;BME280;34408;51.426;5.444;2023-04-09T04:56:25;102390.75;;;11.24;62.08
48614;BME280;34408;51.426;5.444;2023-04-09T04:58:52;102392.78;;;11.22;62.13
48614;BME280;34408;51.426;5.444;2023-04-09T05:01:20;102391.97;;;11.21;62.11
48614;BME280;34408;51.426;5.444;2023-04-09T05:03:48;102396.69;;;11.19;61.88
48614;BME280;34408;51.426;5.444;2023-04-09T05:06:16;102396.69;;;11.19;61.98
48614;BME280;34408;51.426;5.444;2023-04-09T05:08:45;102381.03;;;11.08;62.20
48614;BME280;34408;51.426;5.444;2023-04-09T05:11:13;102391.03;;;11.14;62.02
48614;BME280;34408;51.426;5.444;2023-04-09T05:13:42;102389.19;;;11.15;61.88
48614;BME280;34408;51.426;5.444;2023-04-09T05:16:15;102393.09;;;11.12;61.77
48614;BME280;34408;51.426;5.444;2023-04-09T05:18:43;102388.91;;;11.09;61.96
48614;BME280;34408;51.426;5.444;2023-04-09T05:21:11;102388.91;;;11.09;61.78
48614;BME280;34408;51.426;5.444;2023-04-09T05:23:39;102387.06;;;11.10;61.72
48614;BME280;34408;51.426;5.444;2023-04-09T05:26:08;102392.81;;;11.07;61.86
48614;BME280;34408;51.426;5.444;2023-04-09T05:28:36;102382.25;;;11.05;61.75
48614;BME280;34408;51.426;5.444;2023-04-09T05:31:03;102391.16;;;11.06;61.79
48614;BME280;34408;51.426;5.444;2023-04-09T05:33:36;102388.66;;;11.04;61.83
48614;BME280;34408;51.426;5.444;2023-04-09T05:36:04;102392.34;;;11.03;61.74
48614;BME280;34408;51.426;5.444;2023-04-09T05:38:33;102386.13;;;11.03;61.81
48614;BME280;34408;51.426;5.444;2023-04-09T05:41:00;102384.66;;;11.00;61.66
48614;BME280;34408;51.426;5.444;2023-04-09T05:43:29;102383.00;;;10.99;61.65
48614;BME280;34408;51.426;5.444;2023-04-09T05:45:57;102385.69;;;10.99;61.65
48614;BME280;34408;51.426;5.444;2023-04-09T05:48:25;102379.66;;;10.97;61.77
48614;BME280;34408;51.426;5.444;2023-04-09T05:50:53;102382.34;;;10.97;61.63
48614;BME280;34408;51.426;5.444;2023-04-09T05:53:21;102386.06;;;10.96;61.59
48614;BME280;34408;51.426;5.444;2023-04-09T05:55:49;102389.75;;;10.95;61.60
48614;BME280;34408;51.426;5.444;2023-04-09T05:58:17;102388.94;;;10.95;61.74
48614;BME280;34408;51.426;5.444;2023-04-09T06:00:46;102391.63;;;10.95;61.56
48614;BME280;34408;51.426;5.444;2023-04-09T06:03:16;102392.63;;;10.94;61.65
48614;BME280;34408;51.426;5.444;2023-04-09T06:05:45;102382.63;;;10.88;61.46
48614;BME280;34408;51.426;5.444;2023-04-09T06:08:13;102394.50;;;10.93;61.71
48614;BME280;34408;51.426;5.444;2023-04-09T06:10:42;102395.34;;;10.94;61.59
48614;BME280;34408;51.426;5.444;2023-04-09T06:13:09;102397.00;;;10.95;61.81
48614;BME280;34408;51.426;5.444;2023-04-09T06:15:37;102404.88;;;10.96;61.55
48614;BME280;34408;51.426;5.444;2023-04-09T06:18:07;102401.16;;;10.97;61.54
48614;BME280;34408;51.426;5.444;2023-04-09T06:20:35;102409.06;;;10.99;61.61
48614;BME280;34408;51.426;5.444;2023-04-09T06:23:03;102403.50;;;11.00;61.42
48614;BME280;34408;51.426;5.444;2023-04-09T06:25:31;102407.84;;;11.01;61.70
48614;BME280;34408;51.426;5.444;2023-04-09T06:27:59;102409.53;;;11.02;61.47
48614;BME280;34408;51.426;5.444;2023-04-09T06:30:27;102404.13;;;11.02;61.57
48614;BME280;34408;51.426;5.444;2023-04-09T06:32:55;102418.25;;;11.04;61.52
48614;BME280;34408;51.426;5.444;2023-04-09T06:35:24;102412.84;;;11.04;61.56
48614;BME280;34408;51.426;5.444;2023-04-09T06:37:52;102421.75;;;11.05;61.69
48614;BME280;34408;51.426;5.444;2023-04-09T06:40:19;102416.38;;;11.05;61.63
48614;BME280;34408;51.426;5.444;2023-04-09T06:42:49;102414.53;;;11.05;61.72
48614;BME280;34408;51.426;5.444;2023-04-09T06:45:16;102417.88;;;11.07;61.59
48614;BME280;34408;51.426;5.444;2023-04-09T06:47:44;102412.47;;;11.07;61.81
48614;BME280;34408;51.426;5.444;2023-04-09T06:50:12;102416.66;;;11.10;61.62
48614;BME280;34408;51.426;5.444;2023-04-09T06:52:41;102417.50;;;11.11;61.84
48614;BME280;34408;51.426;5.444;2023-04-09T06:55:09;102421.66;;;11.13;61.69
48614;BME280;34408;51.426;5.444;2023-04-09T06:57:37;102422.50;;;11.14;61.63
48614;BME280;34408;51.426;5.444;2023-04-09T07:00:06;102423.34;;;11.14;61.61
48614;BME280;34408;51.426;5.444;2023-04-09T07:02:34;102421.47;;;11.15;61.72
48614;BME280;34408;51.426;5.444;2023-04-09T07:05:02;102430.19;;;11.17;61.73
48614;BME280;34408;51.426;5.444;2023-04-09T07:07:30;102423.97;;;11.16;61.83
48614;BME280;34408;51.426;5.444;2023-04-09T07:09:59;102427.50;;;11.17;61.62
48614;BME280;34408;51.426;5.444;2023-04-09T07:12:28;102425.66;;;11.17;61.69
48614;BME280;34408;51.426;5.444;2023-04-09T07:14:57;102422.78;;;11.19;61.72
48614;BME280;34408;51.426;5.444;2023-04-09T07:17:24;102423.59;;;11.19;61.84
48614;BME280;34408;51.426;5.444;2023-04-09T07:19:53;102425.09;;;11.22;61.73
48614;BME280;34408;51.426;5.444;2023-04-09T07:22:21;102431.31;;;11.22;61.85
48614;BME280;34408;51.426;5.444;2023-04-09T07:24:49;102431.13;;;11.24;62.00
48614;BME280;34408;51.426;5.444;2023-04-09T07:27:22;102429.25;;;11.24;61.96
48614;BME280;34408;51.426;5.444;2023-04-09T07:29:53;102427.22;;;11.26;62.02
48614;BME280;34408;51.426;5.444;2023-04-09T07:32:21;102434.09;;;11.29;61.81
48614;BME280;34408;51.426;5.444;2023-04-09T07:34:50;102436.59;;;11.30;62.02
48614;BME280;34408;51.426;5.444;2023-04-09T07:37:18;102437.44;;;11.31;61.83
48614;BME280;34408;51.426;5.444;2023-04-09T07:39:46;102434.34;;;11.34;62.06
48614;BME280;34408;51.426;5.444;2023-04-09T07:42:14;102432.50;;;11.34;62.04
48614;BME280;34408;51.426;5.444;2023-04-09T07:44:43;102429.16;;;11.32;62.19
48614;BME280;34408;51.426;5.444;2023-04-09T07:47:11;102429.53;;;11.29;62.08
48614;BME280;34408;51.426;5.444;2023-04-09T07:49:39;102429.91;;;11.26;62.18
48614;BME280;34408;51.426;5.444;2023-04-09T07:52:06;102436.13;;;11.27;62.39
48614;BME280;34408;51.426;5.444;2023-04-09T07:54:34;102424.91;;;11.23;62.54
48614;BME280;34408;51.426;5.444;2023-04-09T07:57:02;102431.31;;;11.22;62.66
48614;BME280;34408;51.426;5.444;2023-04-09T07:59:30;102431.31;;;11.22;62.77
48614;BME280;34408;51.426;5.444;2023-04-09T08:01:59;102434.66;;;11.24;62.75
48614;BME280;34408;51.426;5.444;2023-04-09T08:04:27;102432.41;;;11.28;62.70
48614;BME280;34408;51.426;5.444;2023-04-09T08:06:55;102424.81;;;11.31;62.56
48614;BME280;34408;51.426;5.444;2023-04-09T08:09:23;102428.78;;;11.35;62.75
48614;BME280;34408;51.426;5.444;2023-04-09T08:11:51;102433.16;;;11.36;62.72
48614;BME280;34408;51.426;5.444;2023-04-09T08:14:19;102428.59;;;11.37;62.65
48614;BME280;34408;51.426;5.444;2023-04-09T08:16:47;102421.16;;;11.39;62.96
48614;BME280;34408;51.426;5.444;2023-04-09T08:19:18;102427.75;;;11.36;63.09
48614;BME280;34408;51.426;5.444;2023-04-09T08:21:49;102425.06;;;11.36;63.16
48614;BME280;34408;51.426;5.444;2023-04-09T08:24:17;102415.97;;;11.37;63.22
48614;BME280;34408;51.426;5.444;2023-04-09T08:26:45;102425.91;;;11.37;63.42
48614;BME280;34408;51.426;5.444;2023-04-09T08:29:13;102414.03;;;11.31;63.57
48614;BME280;34408;51.426;5.444;2023-04-09T08:31:41;102420.78;;;11.42;63.55
48614;BME280;34408;51.426;5.444;2023-04-09T08:34:10;102418.28;;;11.40;63.28
48614;BME280;34408;51.426;5.444;2023-04-09T08:36:39;102423.03;;;11.38;63.76
48614;BME280;34408;51.426;5.444;2023-04-09T08:39:07;102423.03;;;11.38;63.70
48614;BME280;34408;51.426;5.444;2023-04-09T08:41:40;102422.19;;;11.38;64.07
48614;BME280;34408;51.426;5.444;2023-04-09T08:44:08;102423.84;;;11.39;63.97
48614;BME280;34408;51.426;5.444;2023-04-09T08:46:36;102420.16;;;11.40;64.00
48614;BME280;34408;51.426;5.444;2023-04-09T08:49:04;102418.09;;;11.42;64.02
48614;BME280;34408;51.426;5.444;2023-04-09T08:51:32;102419.97;;;11.41;64.20
48614;BME280;34408;51.426;5.444;2023-04-09T08:54:04;102415.41;;;11.42;64.09
48614;BME280;34408;51.426;5.444;2023-04-09T08:56:31;102421.44;;;11.44;63.92
48614;BME280;34408;51.426;5.444;2023-04-09T08:58:59;102419.38;;;11.46;64.05
48614;BME280;34408;51.426;5.444;2023-04-09T09:01:29;102416.13;;;11.51;64.28
48614;BME280;34408;51.426;5.444;2023-04-09T09:03:59;102421.97;;;11.54;64.10
48614;BME280;34408;51.426;5.444;2023-04-09T09:06:29;102418.25;;;11.55;64.28
48614;BME280;34408;51.426;5.444;2023-04-09T09:09:01;102419.72;;;11.58;64.14
48614;BME280;34408;51.426;5.444;2023-04-09T09:11:29;102417.88;;;11.58;64.03
48614;BME280;34408;51.426;5.444;2023-04-09T09:13:57;102424.75;;;11.61;64.50
48614;BME280;34408;51.426;5.444;2023-04-09T09:16:25;102425.19;;;11.64;64.72
48614;BME280;34408;51.426;5.444;2023-04-09T09:18:54;102420.72;;;11.71;64.52
48614;BME280;34408;51.426;5.444;2023-04-09T09:21:25;102413.28;;;11.73;64.61
48614;BME280;34408;51.426;5.444;2023-04-09T09:23:54;102421.16;;;11.75;64.21
48614;BME280;34408;51.426;5.444;2023-04-09T09:26:26;102420.97;;;11.77;64.18
48614;BME280;34408;51.426;5.444;2023-04-09T09:28:55;102412.34;;;11.81;64.51
48614;BME280;34408;51.426;5.444;2023-04-09T09:31:24;102413.38;;;11.80;64.53
48614;BME280;34408;51.426;5.444;2023-04-09T09:33:52;102406.13;;;11.81;64.65
48614;BME280;34408;51.426;5.444;2023-04-09T09:36:30;102404.28;;;11.81;64.65
48614;BME280;34408;51.426;5.444;2023-04-09T09:38:59;102397.22;;;11.80;64.78
48614;BME280;34408;51.426;5.444;2023-04-09T09:41:30;102408.25;;;11.85;64.68
48614;BME280;34408;51.426;5.444;2023-04-09T09:43:58;102404.72;;;11.85;64.73
48614;BME280;34408;51.426;5.444;2023-04-09T09:46:26;102393.94;;;11.85;64.47
48614;BME280;34408;51.426;5.444;2023-04-09T09:48:55;102399.13;;;11.86;64.63
48614;BME280;34408;51.426;5.444;2023-04-09T09:51:25;102398.56;;;11.91;65.16
48614;BME280;34408;51.426;5.444;2023-04-09T09:53:55;102391.97;;;11.93;65.19
48614;BME280;34408;51.426;5.444;2023-04-09T09:56:27;102391.75;;;11.95;65.00
48614;BME280;34408;51.426;5.444;2023-04-09T09:59:05;102384.97;;;11.99;64.76
48614;BME280;34408;51.426;5.444;2023-04-09T10:01:34;102380.59;;;11.98;64.59
48614;BME280;34408;51.426;5.444;2023-04-09T10:04:05;102370.28;;;12.01;64.72
48614;BME280;34408;51.426;5.444;2023-04-09T10:06:33;102373.28;;;12.20;65.31
48614;BME280;34408;51.426;5.444;2023-04-09T10:09:03;102377.84;;;12.19;64.69
48614;BME280;34408;51.426;5.444;2023-04-09T10:11:34;102376.38;;;12.17;64.35
48614;BME280;34408;51.426;5.444;2023-04-09T10:14:03;102375.84;;;12.28;64.64
48614;BME280;34408;51.426;5.444;2023-04-09T10:16:31;102371.72;;;12.32;64.73
48614;BME280;34408;51.426;5.444;2023-04-09T10:19:01;102369.66;;;12.34;64.94
48614;BME280;34408;51.426;5.444;2023-04-09T10:21:35;102368.06;;;12.39;64.76
48614;BME280;34408;51.426;5.444;2023-04-09T10:24:08;102368.53;;;12.50;65.26
48614;BME280;34408;51.426;5.444;2023-04-09T10:26:39;102362.50;;;12.48;64.78
48614;BME280;34408;51.426;5.444;2023-04-09T10:29:09;102351.09;;;12.46;64.29
48614;BME280;34408;51.426;5.444;2023-04-09T10:31:53;102348.19;;;12.47;64.22
48614;BME280;34408;51.426;5.444;2023-04-09T10:34:23;102350.69;;;12.49;64.38
48614;BME280;34408;51.426;5.444;2023-04-09T10:36:55;102354.03;;;12.51;64.23
48614;BME280;34408;51.426;5.444;2023-04-09T10:39:25;102350.72;;;12.55;64.13
48614;BME280;34408;51.426;5.444;2023-04-09T10:41:54;102346.16;;;12.56;64.99
48614;BME280;34408;51.426;5.444;2023-04-09T10:44:25;102344.16;;;12.64;65.33
48614;BME280;34408;51.426;5.444;2023-04-09T10:46:53;102341.72;;;12.76;65.60
48614;BME280;34408;51.426;5.444;2023-04-09T10:49:22;102338.03;;;12.84;65.50
48614;BME280;34408;51.426;5.444;2023-04-09T10:51:52;102343.28;;;12.98;65.36
48614;BME280;34408;51.426;5.444;2023-04-09T10:54:39;102335.81;;;13.00;64.54
48614;BME280;34408;51.426;5.444;2023-04-09T10:57:15;102329.78;;;12.98;65.30
48614;BME280;34408;51.426;5.444;2023-04-09T10:59:47;102327.16;;;13.12;64.65
48614;BME280;34408;51.426;5.444;2023-04-09T11:02:43;102323.47;;;13.26;64.42
48614;BME280;34408;51.426;5.444;2023-04-09T11:05:19;102323.91;;;13.36;63.72
48614;BME280;34408;51.426;5.444;2023-04-09T11:07:52;102321.06;;;13.57;63.15
48614;BME280;34408;51.426;5.444;2023-04-09T11:10:21;102311.28;;;13.50;63.87
48614;BME280;34408;51.426;5.444;2023-04-09T11:12:48;102316.06;;;13.48;63.46
48614;BME280;34408;51.426;5.444;2023-04-09T11:15:19;102310.22;;;13.44;63.03
48614;BME280;34408;51.426;5.444;2023-04-09T11:17:47;102305.03;;;13.36;63.08
48614;BME280;34408;51.426;5.444;2023-04-09T11:20:16;102301.91;;;13.32;62.86
48614;BME280;34408;51.426;5.444;2023-04-09T11:22:46;102299.41;;;13.31;62.64
48614;BME280;34408;51.426;5.444;2023-04-09T11:25:21;102306.66;;;13.30;63.04
48614;BME280;34408;51.426;5.444;2023-04-09T11:27:49;102299.81;;;13.28;63.19
48614;BME280;34408;51.426;5.444;2023-04-09T11:30:19;102304.19;;;13.29;62.20
48614;BME280;34408;51.426;5.444;2023-04-09T11:32:48;102306.88;;;13.29;62.43
48614;BME280;34408;51.426;5.444;2023-04-09T11:35:17;102300.88;;;13.33;62.29
48614;BME280;34408;51.426;5.444;2023-04-09T11:37:45;102300.88;;;13.40;62.82
48614;BME280;34408;51.426;5.444;2023-04-09T11:40:15;102300.06;;;13.46;63.07
48614;BME280;34408;51.426;5.444;2023-04-09T11:42:43;102293.63;;;13.47;63.18
48614;BME280;34408;51.426;5.444;2023-04-09T11:45:12;102288.22;;;13.47;63.50
48614;BME280;34408;51.426;5.444;2023-04-09T11:47:42;102285.13;;;13.70;61.90
48614;BME280;34408;51.426;5.444;2023-04-09T11:50:11;102283.47;;;13.76;62.57
48614;BME280;34408;51.426;5.444;2023-04-09T11:52:39;102287.81;;;13.77;62.32
48614;BME280;34408;51.426;5.444;2023-04-09T11:55:08;102286.16;;;13.76;62.19
48614;BME280;34408;51.426;5.444;2023-04-09T11:57:39;102290.72;;;13.82;61.61
48614;BME280;34408;51.426;5.444;2023-04-09T12:00:10;102288.19;;;13.93;61.44
48614;BME280;34408;51.426;5.444;2023-04-09T12:02:41;102289.03;;;13.87;61.74
48614;BME280;34408;51.426;5.444;2023-04-09T12:05:11;102280.97;;;13.81;61.93
48614;BME280;34408;51.426;5.444;2023-04-09T12:07:39;102290.69;;;13.88;61.64
48614;BME280;34408;51.426;5.444;2023-04-09T12:10:17;102291.16;;;13.85;61.88
48614;BME280;34408;51.426;5.444;2023-04-09T12:12:46;102279.91;;;13.82;61.62
48614;BME280;34408;51.426;5.444;2023-04-09T12:15:21;102274.94;;;13.79;61.89
48614;BME280;34408;51.426;5.444;2023-04-09T12:17:52;102266.63;;;13.74;61.16
48614;BME280;34408;51.426;5.444;2023-04-09T12:20:29;102274.31;;;13.83;61.29
48614;BME280;34408;51.426;5.444;2023-04-09T12:22:57;102278.00;;;14.09;60.68
48614;BME280;34408;51.426;5.444;2023-04-09T12:25:25;102268.84;;;14.16;60.76
48614;BME280;34408;51.426;5.444;2023-04-09T12:27:54;102274.84;;;14.25;60.18
48614;BME280;34408;51.426;5.444;2023-04-09T12:30:22;102276.47;;;14.52;59.50
48614;BME280;34408;51.426;5.444;2023-04-09T12:32:51;102274.97;;;14.70;58.53
48614;BME280;34408;51.426;5.444;2023-04-09T12:35:20;102270.53;;;14.82;58.09
48614;BME280;34408;51.426;5.444;2023-04-09T12:37:48;102265.03;;;15.02;57.34
48614;BME280;34408;51.426;5.444;2023-04-09T12:40:17;102262.25;;;15.15;56.86
48614;BME280;34408;51.426;5.444;2023-04-09T12:42:46;102267.53;;;15.35;55.74
48614;BME280;34408;51.426;5.444;2023-04-09T12:45:16;102263.50;;;15.44;54.77
48614;BME280;34408;51.426;5.444;2023-04-09T12:47:45;102262.47;;;15.45;55.10
48614;BME280;34408;51.426;5.444;2023-04-09T12:50:14;102262.78;;;15.30;55.14
48614;BME280;34408;51.426;5.444;2023-04-09T12:52:42;102264.94;;;15.15;55.92
48614;BME280;34408;51.426;5.444;2023-04-09T12:55:11;102264.81;;;15.03;56.65
48614;BME280;34408;51.426;5.444;2023-04-09T12:57:41;102263.19;;;14.95;57.54
48614;BME280;34408;51.426;5.444;2023-04-09T13:00:10;102263.88;;;14.84;58.02